Time;durP1;ratioP1;P1;durP2;ratioP2;P2;SDS_P1;SDS_P2;PMS_P1;PMS_P2;Temp;Humidity;BMP_temperature;BMP_pressure;BME280_temperature;BME280_humidity;BME280_pressure;Samples;Min_cycle;Max_cycle;Signal;HPM_P1;HPM_P2
2022/12/14 00:00:58;;;;;;;;;;;-2.60;99.90;;;;;;5055744;28;19994;-75
2022/12/14 00:03:24;;;;;;;;;;;-2.60;99.90;;;;;;5055730;28;19914;-75
2022/12/14 00:05:49;;;;;;;;;;;-2.60;99.90;;;;;;5055387;28;20002;-75
2022/12/14 00:08:16;;;;;;;;;;;-2.60;99.90;;;;;;5074038;28;19908;-75
2022/12/14 00:10:41;;;;;;;;;;;-2.60;99.90;;;;;;5055495;28;19904;-75
2022/12/14 00:13:08;;;;;;;;;;;-2.60;99.90;;;;;;5073346;28;20425;-75
2022/12/14 00:15:35;;;;;;;;;;;-2.60;99.90;;;;;;5055506;28;19908;-75
2022/12/14 00:18:01;;;;;;;;;;;-2.70;99.90;;;;;;5055298;28;19956;-75
2022/12/14 00:20:26;;;;;;;;;;;-2.70;99.90;;;;;;5055309;28;19912;-75
2022/12/14 00:22:56;;;;;;;;;;;-2.70;99.90;;;;;;5055225;28;19919;-75
2022/12/14 00:25:22;;;;;;;;;;;-2.70;99.90;;;;;;5073305;28;19911;-75
2022/12/14 00:27:48;;;;;;;;;;;-2.70;99.90;;;;;;5073270;28;19976;-75
2022/12/14 00:30:14;;;;;;;;;;;-2.70;99.90;;;;;;5055217;28;19912;-75
2022/12/14 00:32:40;;;;;;;;;;;-2.70;99.90;;;;;;5073313;28;19904;-75
2022/12/14 00:35:12;;;;;;;;;;;-2.70;99.90;;;;;;5076052;28;20469;-75
2022/12/14 00:37:37;;;;;;;;;;;-2.70;99.90;;;;;;5058737;28;19915;-75
2022/12/14 00:40:04;;;;;;;;;;;-2.70;99.90;;;;;;5058922;28;20272;-76
2022/12/14 00:42:29;;;;;;;;;;;-2.70;99.90;;;;;;5058723;28;20306;-75
2022/12/14 00:44:55;;;;;;;;;;;-2.70;99.90;;;;;;5058760;28;19908;-75
2022/12/14 00:47:20;;;;;;;;;;;-2.70;99.90;;;;;;5076602;28;20368;-75
2022/12/14 00:49:46;;;;;;;;;;;-2.70;99.90;;;;;;5076654;28;19908;-75
2022/12/14 00:52:11;;;;;;;;;;;-2.70;99.90;;;;;;5076562;28;19908;-75
2022/12/14 00:54:37;;;;;;;;;;;-2.70;99.90;;;;;;5058614;28;19905;-75
2022/12/14 00:57:02;;;;;;;;;;;-2.70;99.90;;;;;;5058532;28;20003;-75
2022/12/14 00:59:27;;;;;;;;;;;-2.70;99.90;;;;;;5076959;28;19909;-75
2022/12/14 01:01:53;;;;;;;;;;;-2.70;99.90;;;;;;5058356;28;19935;-75
2022/12/14 01:04:21;;;;;;;;;;;-2.70;99.90;;;;;;5058411;28;19991;-75
2022/12/14 01:06:47;;;;;;;;;;;-2.70;99.90;;;;;;5058530;28;20319;-75
2022/12/14 01:09:13;;;;;;;;;;;-2.70;99.90;;;;;;5058223;28;20002;-75
2022/12/14 01:11:38;;;;;;;;;;;-2.80;99.90;;;;;;5077528;28;19908;-75
2022/12/14 01:14:04;;;;;;;;;;;-2.80;99.90;;;;;;5059013;28;20371;-76
2022/12/14 01:16:30;;;;;;;;;;;-2.70;99.90;;;;;;5076925;28;20034;-75
2022/12/14 01:18:57;;;;;;;;;;;-2.80;99.90;;;;;;5058855;28;19919;-76
2022/12/14 01:21:22;;;;;;;;;;;-2.80;99.90;;;;;;5058877;28;19915;-75
2022/12/14 01:23:58;;;;;;;;;;;-2.80;99.90;;;;;;5059689;28;20255;-76
2022/12/14 01:26:24;;;;;;;;;;;-2.80;99.90;;;;;;5059186;28;19904;-75
2022/12/14 01:28:51;;;;;;;;;;;-2.80;99.90;;;;;;5058884;28;20007;-76
2022/12/14 01:31:18;;;;;;;;;;;-2.70;99.90;;;;;;5058694;28;19904;-75
2022/12/14 01:33:44;;;;;;;;;;;-2.80;99.90;;;;;;5076858;28;19904;-75
2022/12/14 01:36:11;;;;;;;;;;;-2.80;99.90;;;;;;5077280;28;19930;-76
2022/12/14 01:38:36;;;;;;;;;;;-2.80;99.90;;;;;;5058333;28;19935;-76
2022/12/14 01:41:02;;;;;;;;;;;-2.80;99.90;;;;;;5076649;28;19909;-75
2022/12/14 01:43:47;;;;;;;;;;;-2.80;99.90;;;;;;5058560;28;19999;-75
2022/12/14 01:46:13;;;;;;;;;;;-2.80;99.90;;;;;;5075924;28;19939;-75
2022/12/14 01:48:39;;;;;;;;;;;-2.90;99.90;;;;;;5076459;28;19999;-75
2022/12/14 01:51:04;;;;;;;;;;;-2.90;99.90;;;;;;5076924;28;20340;-75
2022/12/14 01:53:30;;;;;;;;;;;-2.90;99.90;;;;;;5076391;28;19905;-75
2022/12/14 01:55:55;;;;;;;;;;;-2.90;99.90;;;;;;5058817;28;19977;-75
2022/12/14 01:58:22;;;;;;;;;;;-3.00;99.90;;;;;;5076421;28;19909;-75
2022/12/14 02:00:48;;;;;;;;;;;-3.00;99.90;;;;;;5058402;28;19904;-75
2022/12/14 02:03:14;;;;;;;;;;;-2.90;99.90;;;;;;5076478;28;19948;-75
2022/12/14 02:05:42;;;;;;;;;;;-1.30;99.90;;;;;;5076315;28;19927;-76
2022/12/14 02:08:08;;;;;;;;;;;-3.00;99.90;;;;;;5076308;28;19934;-75
2022/12/14 02:10:34;;;;;;;;;;;-2.90;99.90;;;;;;5058150;28;19904;-75
2022/12/14 02:13:02;;;;;;;;;;;-3.00;99.90;;;;;;5058171;28;19905;-76
2022/12/14 02:15:29;;;;;;;;;;;-3.00;99.90;;;;;;5058459;28;20260;-75
2022/12/14 02:17:55;;;;;;;;;;;-3.00;99.90;;;;;;5075984;28;20287;-75
2022/12/14 02:20:21;;;;;;;;;;;-3.00;99.90;;;;;;5076452;28;19904;-76
2022/12/14 02:22:59;;;;;;;;;;;-3.10;99.90;;;;;;5057579;28;19919;-75
2022/12/14 02:25:39;;;;;;;;;;;-3.10;99.90;;;;;;5058206;28;19904;-75
2022/12/14 02:28:11;;;;;;;;;;;-3.10;99.90;;;;;;5075543;28;19912;-75
2022/12/14 02:30:38;;;;;;;;;;;-3.10;99.90;;;;;;5075497;28;19904;-75
2022/12/14 02:33:06;;;;;;;;;;;-3.10;99.90;;;;;;5075969;28;20310;-75
2022/12/14 02:35:43;;;;;;;;;;;-3.10;99.90;;;;;;5057494;28;19905;-75
2022/12/14 02:38:28;;;;;;;;;;;-3.10;99.90;;;;;;5057342;28;19958;-75
2022/12/14 02:41:02;;;;;;;;;;;-3.20;99.90;;;;;;5057433;28;19909;-75
2022/12/14 02:43:34;;;;;;;;;;;-3.20;99.90;;;;;;5057507;28;20282;-75
2022/12/14 02:46:08;;;;;;;;;;;-3.20;99.90;;;;;;5057466;28;19904;-75
2022/12/14 02:48:53;;;;;;;;;;;-3.30;99.90;;;;;;5057288;28;19995;-75
2022/12/14 02:51:30;;;;;;;;;;;-3.30;99.90;;;;;;5074807;28;19904;-75
2022/12/14 02:54:01;;;;;;;;;;;-3.30;99.90;;;;;;5057106;28;20382;-75
2022/12/14 02:56:35;;;;;;;;;;;-3.30;99.90;;;;;;5074975;28;20367;-75
2022/12/14 02:59:02;;;;;;;;;;;-3.40;99.90;;;;;;5057158;28;19959;-75
2022/12/14 03:01:28;;;;;;;;;;;-3.40;99.90;;;;;;5074866;28;19911;-75
2022/12/14 03:03:54;;;;;;;;;;;-3.40;99.90;;;;;;5057012;28;19904;-75
2022/12/14 03:06:26;;;;;;;;;;;-3.50;99.90;;;;;;5074145;28;19932;-75
2022/12/14 03:08:53;;;;;;;;;;;-3.50;99.90;;;;;;5056402;28;19974;-75
2022/12/14 03:11:23;;;;;;;;;;;-3.60;99.90;;;;;;5074688;28;19911;-75
2022/12/14 03:13:52;;;;;;;;;;;-3.60;99.90;;;;;;5053781;23;19964;-77
2022/12/14 03:16:23;;;;;;;;;;;-3.60;99.90;;;;;;5032144;28;19905;-77
2022/12/14 03:18:51;;;;;;;;;;;-3.70;99.90;;;;;;5033885;28;19948;-77
2022/12/14 03:21:19;;;;;;;;;;;-3.70;99.90;;;;;;5016277;28;19912;-77
2022/12/14 03:23:47;;;;;;;;;;;-3.70;99.90;;;;;;5034498;28;19905;-77
2022/12/14 03:26:16;;;;;;;;;;;-3.70;99.90;;;;;;5016129;28;19998;-77
2022/12/14 03:28:46;;;;;;;;;;;-3.70;99.90;;;;;;5033807;28;19905;-77
2022/12/14 03:31:21;;;;;;;;;;;-3.70;99.90;;;;;;5016208;28;19913;-77
2022/12/14 03:33:47;;;;;;;;;;;-3.70;99.90;;;;;;5033834;28;20429;-77
2022/12/14 03:36:17;;;;;;;;;;;-3.80;99.90;;;;;;5016044;28;20011;-77
2022/12/14 03:38:43;;;;;;;;;;;-3.80;99.90;;;;;;5015956;28;19909;-77
2022/12/14 03:41:20;;;;;;;;;;;-3.80;99.90;;;;;;5015947;28;19904;-77
2022/12/14 03:43:48;;;;;;;;;;;-3.90;99.90;;;;;;5016151;28;20319;-77
2022/12/14 03:46:17;;;;;;;;;;;-3.90;99.90;;;;;;5015951;28;20004;-77
2022/12/14 03:48:50;;;;;;;;;;;-3.90;99.90;;;;;;5016073;28;19905;-77
2022/12/14 03:51:35;;;;;;;;;;;-4.00;99.90;;;;;;5015905;28;19943;-77
2022/12/14 03:54:03;;;;;;;;;;;-4.00;99.90;;;;;;5033572;28;19905;-77
2022/12/14 03:56:43;;;;;;;;;;;-4.00;99.90;;;;;;5033709;28;19912;-77
2022/12/14 03:59:09;;;;;;;;;;;-4.00;99.90;;;;;;5033785;28;19909;-77
2022/12/14 04:01:34;;;;;;;;;;;-4.00;99.90;;;;;;5015853;28;19905;-77
2022/12/14 04:04:05;;;;;;;;;;;-4.00;99.90;;;;;;5034058;28;20354;-77
2022/12/14 04:06:31;;;;;;;;;;;-4.00;99.90;;;;;;5033310;28;19906;-78
2022/12/14 04:09:11;;;;;;;;;;;-4.00;99.90;;;;;;5035162;28;20260;-77
2022/12/14 04:20:17;;;;;;;;;;;-4.00;99.90;;;;;;5037549;28;20421;-77
2022/12/14 04:22:46;;;;;;;;;;;-4.10;99.90;;;;;;5037257;28;19996;-77
2022/12/14 04:28:03;;;;;;;;;;;-4.10;99.90;;;;;;5037654;28;19952;-77
2022/12/14 04:30:30;;;;;;;;;;;-4.10;99.90;;;;;;5037344;28;19951;-77
2022/12/14 04:32:59;;;;;;;;;;;-4.20;99.90;;;;;;5019186;28;19905;-77
2022/12/14 04:35:24;;;;;;;;;;;-4.20;99.90;;;;;;5019293;28;19912;-77
2022/12/14 04:37:51;;;;;;;;;;;-4.20;99.90;;;;;;5019399;28;19909;-77
2022/12/14 04:40:25;;;;;;;;;;;-4.20;99.90;;;;;;5037110;28;19905;-77
2022/12/14 04:42:54;;;;;;;;;;;-4.20;99.90;;;;;;5036972;28;20415;-77
2022/12/14 04:45:26;;;;;;;;;;;-4.20;99.90;;;;;;5036788;28;19905;-77
2022/12/14 04:48:10;;;;;;;;;;;-4.20;99.90;;;;;;5019073;28;19905;-77
2022/12/14 04:50:43;;;;;;;;;;;-4.20;99.90;;;;;;5036753;28;19905;-77
2022/12/14 04:53:16;;;;;;;;;;;-3.60;99.90;;;;;;5036618;28;20279;-77
2022/12/14 04:55:46;;;;;;;;;;;-4.20;99.90;;;;;;5037322;28;20287;-77
2022/12/14 04:58:17;;;;;;;;;;;-4.20;99.90;;;;;;5036433;28;19909;-77
2022/12/14 05:01:06;;;;;;;;;;;-4.20;99.90;;;;;;5036717;28;20363;-77
2022/12/14 05:03:36;;;;;;;;;;;-4.30;99.90;;;;;;4999193;28;19905;-77
2022/12/14 05:06:12;;;;;;;;;;;-4.30;99.90;;;;;;5036548;28;19904;-77
2022/12/14 05:09:08;;;;;;;;;;;-4.30;99.90;;;;;;5018726;28;19996;-77
2022/12/14 05:11:42;;;;;;;;;;;-4.30;99.90;;;;;;5005589;28;19905;-77
2022/12/14 05:14:11;;;;;;;;;;;-4.30;99.90;;;;;;5036394;28;19971;-77
2022/12/14 05:16:37;;;;;;;;;;;-4.30;99.90;;;;;;5018733;28;19909;-77
2022/12/14 05:19:06;;;;;;;;;;;-4.20;99.90;;;;;;5036266;28;20007;-77
2022/12/14 05:21:47;;;;;;;;;;;-4.30;99.90;;;;;;5017249;28;19911;-76
2022/12/14 05:24:13;;;;;;;;;;;-4.30;99.90;;;;;;5018260;28;19905;-77
2022/12/14 05:26:39;;;;;;;;;;;-4.30;99.90;;;;;;5036196;28;20414;-77
2022/12/14 05:29:04;;;;;;;;;;;-4.30;99.90;;;;;;5036140;28;19909;-77
2022/12/14 05:31:31;;;;;;;;;;;-4.30;99.90;;;;;;5035972;28;19912;-77
2022/12/14 05:33:57;;;;;;;;;;;-4.30;99.90;;;;;;5018271;28;19920;-77
2022/12/14 05:36:22;;;;;;;;;;;-4.30;99.90;;;;;;5018164;28;19905;-77
2022/12/14 05:38:48;;;;;;;;;;;-4.40;99.90;;;;;;5018202;28;20015;-77
2022/12/14 05:41:13;;;;;;;;;;;-4.40;99.90;;;;;;5035816;28;19909;-77
2022/12/14 05:43:39;;;;;;;;;;;-4.40;99.90;;;;;;5018581;28;19905;-77
2022/12/14 05:46:05;;;;;;;;;;;-4.40;99.90;;;;;;5035962;28;20445;-77
2022/12/14 05:48:32;;;;;;;;;;;-4.50;99.90;;;;;;5035967;28;19967;-77
2022/12/14 05:51:05;;;;;;;;;;;-4.40;99.90;;;;;;5018234;28;20386;-77
2022/12/14 05:53:30;;;;;;;;;;;-4.50;99.90;;;;;;5017891;28;19920;-77
2022/12/14 05:55:56;;;;;;;;;;;-4.50;99.90;;;;;;5035581;28;19905;-77
2022/12/14 05:58:21;;;;;;;;;;;-4.50;99.90;;;;;;5036157;28;20406;-77
2022/12/14 06:00:47;;;;;;;;;;;-4.50;99.90;;;;;;5035385;28;20293;-77
2022/12/14 06:03:13;;;;;;;;;;;-4.50;99.90;;;;;;5017672;28;19909;-77
2022/12/14 06:05:38;;;;;;;;;;;-4.50;99.90;;;;;;5017569;28;19967;-76
2022/12/14 06:08:04;;;;;;;;;;;-4.60;99.90;;;;;;5017390;28;20356;-77
2022/12/14 06:10:29;;;;;;;;;;;-4.60;99.90;;;;;;5017626;28;20303;-77
2022/12/14 06:12:56;;;;;;;;;;;-4.60;99.90;;;;;;5035296;28;19905;-76
2022/12/14 06:15:22;;;;;;;;;;;-4.60;99.90;;;;;;5017587;28;19917;-76
2022/12/14 06:17:47;;;;;;;;;;;-4.60;99.90;;;;;;5035230;28;19920;-76
2022/12/14 06:20:13;;;;;;;;;;;-4.60;99.90;;;;;;5035677;28;20048;-76
2022/12/14 06:22:39;;;;;;;;;;;-4.30;99.90;;;;;;5017308;28;19928;-76
2022/12/14 06:25:04;;;;;;;;;;;-4.70;99.90;;;;;;5017553;28;19988;-77
2022/12/14 06:27:30;;;;;;;;;;;-4.80;99.90;;;;;;5035008;28;19994;-77
2022/12/14 06:29:55;;;;;;;;;;;-4.70;99.90;;;;;;5035147;28;19996;-76
2022/12/14 06:32:24;;;;;;;;;;;-4.80;99.90;;;;;;5035635;28;20299;-76
2022/12/14 06:34:50;;;;;;;;;;;-4.80;99.90;;;;;;5035933;28;19969;-77
2022/12/14 06:37:15;;;;;;;;;;;-4.90;99.90;;;;;;5018264;28;19905;-76
2022/12/14 06:39:48;;;;;;;;;;;-4.90;99.90;;;;;;5036048;28;19909;-77
2022/12/14 06:42:15;;;;;;;;;;;-4.90;99.90;;;;;;5017033;28;19905;-75
2022/12/14 06:44:41;;;;;;;;;;;-4.90;99.90;;;;;;5017788;28;19905;-75
2022/12/14 06:47:06;;;;;;;;;;;-4.40;99.90;;;;;;5035592;28;20353;-76
2022/12/14 06:49:32;;;;;;;;;;;-4.90;99.90;;;;;;5036076;28;19963;-76
2022/12/14 06:51:58;;;;;;;;;;;-4.90;99.90;;;;;;5035312;28;19913;-75
2022/12/14 06:54:23;;;;;;;;;;;-5.00;99.90;;;;;;5017336;28;19905;-75
2022/12/14 06:56:49;;;;;;;;;;;-5.00;99.90;;;;;;5034811;28;19905;-75
2022/12/14 06:59:15;;;;;;;;;;;-5.00;99.90;;;;;;5017558;28;19934;-75
2022/12/14 07:01:41;;;;;;;;;;;-5.10;99.90;;;;;;5017660;28;20365;-75
2022/12/14 07:04:07;;;;;;;;;;;-5.10;99.90;;;;;;5035409;28;19909;-76
2022/12/14 07:06:35;;;;;;;;;;;-5.20;99.90;;;;;;5035395;28;19913;-75
2022/12/14 07:09:01;;;;;;;;;;;-5.20;99.90;;;;;;5017227;28;19912;-75
2022/12/14 07:11:27;;;;;;;;;;;-5.20;99.90;;;;;;5035079;28;19909;-75
2022/12/14 07:13:53;;;;;;;;;;;-5.20;99.90;;;;;;5035191;28;19916;-75
2022/12/14 07:16:20;;;;;;;;;;;-5.20;99.90;;;;;;5017131;28;19905;-75
2022/12/14 07:18:46;;;;;;;;;;;-5.20;99.90;;;;;;5035275;28;20008;-75
2022/12/14 07:21:12;;;;;;;;;;;-5.30;99.90;;;;;;5017433;28;20344;-75
2022/12/14 07:23:39;;;;;;;;;;;-5.30;99.90;;;;;;5034238;28;19948;-75
2022/12/14 07:26:12;;;;;;;;;;;-5.20;99.90;;;;;;5034671;28;19991;-75
2022/12/14 07:28:38;;;;;;;;;;;-5.30;99.90;;;;;;5016994;28;19909;-75
2022/12/14 07:31:05;;;;;;;;;;;-5.40;99.90;;;;;;5034565;28;19912;-75
2022/12/14 07:33:31;;;;;;;;;;;-5.40;99.90;;;;;;5034730;28;19912;-75
2022/12/14 07:36:01;;;;;;;;;;;-5.40;99.90;;;;;;5034787;28;19907;-76
2022/12/14 07:38:26;;;;;;;;;;;-5.50;99.90;;;;;;5016924;28;19987;-76
2022/12/14 07:40:52;;;;;;;;;;;-5.50;99.90;;;;;;5016140;28;19944;-76
2022/12/14 07:43:17;;;;;;;;;;;-5.50;99.90;;;;;;5033325;28;19909;-76
2022/12/14 07:45:43;;;;;;;;;;;-5.50;99.90;;;;;;5033784;28;20397;-76
2022/12/14 07:48:09;;;;;;;;;;;-4.60;99.90;;;;;;5034254;28;19995;-76
2022/12/14 07:50:34;;;;;;;;;;;-5.50;99.90;;;;;;5034326;28;20340;-76
2022/12/14 07:53:00;;;;;;;;;;;-5.50;99.90;;;;;;5016053;28;19912;-76
2022/12/14 07:55:25;;;;;;;;;;;-5.50;99.90;;;;;;5033772;28;19905;-75
2022/12/14 07:57:51;;;;;;;;;;;-5.60;99.90;;;;;;5033604;28;19982;-75
2022/12/14 08:00:17;;;;;;;;;;;-5.60;99.90;;;;;;5034132;28;20004;-75
2022/12/14 08:02:42;;;;;;;;;;;-5.60;99.90;;;;;;5034121;28;19905;-75
2022/12/14 08:05:08;;;;;;;;;;;-5.70;99.90;;;;;;5016269;28;19905;-75
2022/12/14 08:07:34;;;;;;;;;;;-5.70;99.90;;;;;;5016221;28;19945;-75
2022/12/14 08:09:59;;;;;;;;;;;-5.70;99.90;;;;;;5034377;28;20368;-75
2022/12/14 08:12:25;;;;;;;;;;;-5.70;99.90;;;;;;5033872;28;19905;-76
2022/12/14 08:14:50;;;;;;;;;;;-5.70;99.90;;;;;;5034363;28;20368;-75
2022/12/14 08:17:16;;;;;;;;;;;-5.70;99.90;;;;;;5016271;28;20371;-75
2022/12/14 08:19:41;;;;;;;;;;;-5.70;99.90;;;;;;5033980;28;19956;-75
2022/12/14 08:22:07;;;;;;;;;;;-5.70;99.90;;;;;;5016383;28;19909;-76
2022/12/14 08:24:32;;;;;;;;;;;-5.70;99.90;;;;;;5016405;28;19916;-75
2022/12/14 08:26:57;;;;;;;;;;;-5.60;99.90;;;;;;5034566;28;19948;-75
2022/12/14 08:29:23;;;;;;;;;;;-5.70;99.90;;;;;;5033951;28;19932;-75
2022/12/14 08:31:49;;;;;;;;;;;-5.70;99.90;;;;;;5016703;28;20405;-75
2022/12/14 08:34:20;;;;;;;;;;;-5.70;99.90;;;;;;5034128;28;20271;-75
2022/12/14 08:36:46;;;;;;;;;;;-5.60;99.90;;;;;;5033976;28;19931;-75
2022/12/14 08:39:12;;;;;;;;;;;-5.60;99.90;;;;;;5034027;28;19909;-75
2022/12/14 08:41:37;;;;;;;;;;;-5.50;99.90;;;;;;5033418;28;19975;-75
2022/12/14 08:44:03;;;;;;;;;;;-5.50;99.90;;;;;;5033960;28;19912;-75
2022/12/14 08:46:30;;;;;;;;;;;-5.40;99.90;;;;;;5033234;28;20284;-75
2022/12/14 08:48:56;;;;;;;;;;;-5.30;99.90;;;;;;5033168;28;19905;-75
2022/12/14 08:51:22;;;;;;;;;;;-5.30;99.90;;;;;;5033062;28;19913;-75
2022/12/14 08:53:47;;;;;;;;;;;-5.20;99.90;;;;;;5033145;28;19909;-75
2022/12/14 08:56:14;;;;;;;;;;;-5.10;99.90;;;;;;5036146;28;19972;-75
2022/12/14 08:58:40;;;;;;;;;;;-5.00;99.90;;;;;;5036863;28;20359;-75
2022/12/14 09:01:08;;;;;;;;;;;-4.90;99.90;;;;;;5036805;28;19912;-75
2022/12/14 09:03:33;;;;;;;;;;;-4.90;99.90;;;;;;5018918;28;19905;-75
2022/12/14 09:06:06;;;;;;;;;;;-4.80;99.90;;;;;;5036777;28;20015;-75
2022/12/14 09:08:32;;;;;;;;;;;-4.70;99.90;;;;;;5037207;28;19926;-75
2022/12/14 09:10:58;;;;;;;;;;;-4.60;99.90;;;;;;5018883;28;20425;-75
2022/12/14 09:13:23;;;;;;;;;;;-4.50;99.90;;;;;;5036534;28;19905;-75
2022/12/14 09:15:56;;;;;;;;;;;-4.40;99.90;;;;;;5036546;28;20279;-75
2022/12/14 09:18:22;;;;;;;;;;;-4.30;99.90;;;;;;5018663;28;19916;-75
2022/12/14 09:20:47;;;;;;;;;;;-4.20;99.90;;;;;;5036337;28;19913;-75
2022/12/14 09:23:13;;;;;;;;;;;-4.10;99.90;;;;;;5018842;28;19931;-75
2022/12/14 09:25:38;;;;;;;;;;;-4.00;99.90;;;;;;5036251;28;19936;-75
2022/12/14 09:28:04;;;;;;;;;;;-4.00;99.90;;;;;;5036243;28;19905;-75
2022/12/14 09:30:29;;;;;;;;;;;-3.90;99.90;;;;;;5018414;28;19912;-75
2022/12/14 09:32:55;;;;;;;;;;;-3.80;99.90;;;;;;5018304;28;19905;-75
2022/12/14 09:35:21;;;;;;;;;;;-3.70;99.90;;;;;;5036663;28;19911;-75
2022/12/14 09:37:46;;;;;;;;;;;-3.60;99.90;;;;;;5018297;28;19905;-75
2022/12/14 09:40:12;;;;;;;;;;;-3.50;99.90;;;;;;5036669;28;19905;-75
2022/12/14 09:42:46;;;;;;;;;;;-3.40;99.90;;;;;;5035876;28;19905;-75
2022/12/14 09:45:16;;;;;;;;;;;-3.30;99.90;;;;;;5036096;28;20371;-75
2022/12/14 09:47:50;;;;;;;;;;;-3.30;99.90;;;;;;5036075;28;19960;-75
2022/12/14 09:50:20;;;;;;;;;;;-3.20;99.90;;;;;;5036029;28;19961;-75
2022/12/14 09:52:48;;;;;;;;;;;-3.10;99.90;;;;;;5036794;28;20352;-75
2022/12/14 09:55:28;;;;;;;;;;;-3.10;99.90;;;;;;5035743;28;19905;-75
2022/12/14 09:58:12;;;;;;;;;;;-3.00;99.90;;;;;;5035752;28;19905;-75
2022/12/14 10:00:43;;;;;;;;;;;-3.00;99.90;;;;;;5035874;28;20383;-75
2022/12/14 10:03:14;;;;;;;;;;;-2.80;99.90;;;;;;5035563;28;19948;-75
2022/12/14 10:05:45;;;;;;;;;;;-2.70;99.90;;;;;;5032631;28;19909;-75
2022/12/14 10:08:25;;;;;;;;;;;-2.70;99.90;;;;;;4999575;28;19909;-75
2022/12/14 10:11:13;;;;;;;;;;;-2.60;99.90;;;;;;4997105;28;20374;-75
2022/12/14 10:13:54;;;;;;;;;;;-2.40;99.90;;;;;;5015833;28;19999;-75
2022/12/14 10:16:25;;;;;;;;;;;-2.40;99.90;;;;;;4996548;28;19905;-75
2022/12/14 10:18:51;;;;;;;;;;;-2.30;99.90;;;;;;4996646;28;20361;-75
2022/12/14 10:21:19;;;;;;;;;;;-2.20;99.90;;;;;;4998194;28;19925;-75
2022/12/14 10:24:10;;;;;;;;;;;-2.20;99.90;;;;;;5015557;28;19992;-75
2022/12/14 10:26:41;;;;;;;;;;;-2.10;99.90;;;;;;5010616;28;19960;-75
2022/12/14 10:29:29;;;;;;;;;;;-2.10;99.90;;;;;;5015514;28;20339;-75
2022/12/14 10:32:01;;;;;;;;;;;-2.00;99.90;;;;;;4997562;28;20012;-75
2022/12/14 10:34:28;;;;;;;;;;;-1.90;99.90;;;;;;5015254;28;19905;-75
2022/12/14 10:37:14;;;;;;;;;;;-1.90;99.90;;;;;;5015325;28;19952;-75
2022/12/14 10:39:52;;;;;;;;;;;-1.80;99.90;;;;;;5014459;28;20360;-75
2022/12/14 10:42:25;;;;;;;;;;;-1.70;99.90;;;;;;5015011;28;19909;-75
2022/12/14 10:44:54;;;;;;;;;;;-1.70;99.90;;;;;;4997482;28;20351;-75
2022/12/14 10:47:19;;;;;;;;;;;-1.60;99.90;;;;;;4997319;28;19906;-75
2022/12/14 10:49:57;;;;;;;;;;;-1.60;99.90;;;;;;5014951;28;20280;-75
2022/12/14 10:52:26;;;;;;;;;;;-1.50;99.90;;;;;;5014713;28;20315;-75
2022/12/14 10:54:54;;;;;;;;;;;-1.40;99.90;;;;;;5014800;28;19906;-75
2022/12/14 10:57:21;;;;;;;;;;;-1.30;99.90;;;;;;5014820;28;19905;-75
2022/12/14 10:59:46;;;;;;;;;;;-1.20;99.90;;;;;;4997030;28;19909;-75
2022/12/14 11:02:15;;;;;;;;;;;-1.20;99.90;;;;;;5014710;28;19913;-75
2022/12/14 11:04:52;;;;;;;;;;;-1.10;99.90;;;;;;4996971;28;19905;-75
2022/12/14 11:07:46;;;;;;;;;;;-1.10;99.90;;;;;;5014678;28;20292;-75
2022/12/14 11:10:17;;;;;;;;;;;-1.00;99.90;;;;;;5011772;28;20000;-75
2022/12/14 11:13:03;;;;;;;;;;;-0.90;99.90;;;;;;5014654;28;20004;-76
2022/12/14 11:15:33;;;;;;;;;;;-0.80;99.90;;;;;;5014623;28;20000;-75
2022/12/14 11:18:01;;;;;;;;;;;-0.80;99.90;;;;;;5013727;28;20343;-75
2022/12/14 11:20:27;;;;;;;;;;;-0.70;99.90;;;;;;5014311;28;19992;-75
2022/12/14 11:22:57;;;;;;;;;;;-0.60;99.90;;;;;;5014391;28;19912;-75
2022/12/14 11:25:32;;;;;;;;;;;-0.50;99.90;;;;;;4996968;28;19905;-75
2022/12/14 11:27:58;;;;;;;;;;;-0.40;99.90;;;;;;4996841;28;19910;-75
2022/12/14 11:30:27;;;;;;;;;;;-0.30;99.90;;;;;;4996684;28;19912;-76
2022/12/14 11:32:52;;;;;;;;;;;-0.20;99.90;;;;;;5014250;28;19952;-75
2022/12/14 11:35:19;;;;;;;;;;;-0.10;99.90;;;;;;4996892;28;19909;-75
2022/12/14 11:37:47;;;;;;;;;;;-0.10;99.90;;;;;;4996732;28;19911;-75
2022/12/14 11:40:18;;;;;;;;;;;0.00;99.90;;;;;;5014163;28;19912;-75
2022/12/14 11:42:51;;;;;;;;;;;0.10;99.90;;;;;;5014116;28;19905;-75
2022/12/14 11:45:28;;;;;;;;;;;0.20;99.90;;;;;;4996566;28;19912;-75
2022/12/14 11:48:12;;;;;;;;;;;0.20;99.90;;;;;;5014154;28;19912;-75
2022/12/14 11:50:37;;;;;;;;;;;0.30;99.90;;;;;;5014163;28;19909;-75
2022/12/14 11:53:09;;;;;;;;;;;0.40;99.90;;;;;;5015038;28;19905;-75
2022/12/14 11:55:37;;;;;;;;;;;0.40;99.90;;;;;;4996841;28;19906;-75
2022/12/14 11:58:04;;;;;;;;;;;0.50;99.90;;;;;;4996752;28;19960;-75
2022/12/14 12:00:37;;;;;;;;;;;0.50;99.90;;;;;;4996782;28;19959;-75
2022/12/14 12:03:18;;;;;;;;;;;0.60;99.90;;;;;;5014420;28;19906;-75
2022/12/14 12:05:43;;;;;;;;;;;0.60;99.90;;;;;;4996847;28;19905;-75
2022/12/14 12:08:26;;;;;;;;;;;0.70;99.90;;;;;;4996826;28;19955;-75
2022/12/14 12:10:53;;;;;;;;;;;0.70;99.90;;;;;;5014530;28;20375;-75
2022/12/14 12:13:22;;;;;;;;;;;0.80;99.90;;;;;;4996294;28;19955;-75
2022/12/14 12:15:49;;;;;;;;;;;0.80;99.90;;;;;;4996930;28;19924;-75
2022/12/14 12:18:20;;;;;;;;;;;0.90;99.90;;;;;;5014237;28;19910;-75
2022/12/14 12:20:52;;;;;;;;;;;0.90;99.90;;;;;;5015007;28;20456;-75
2022/12/14 12:23:23;;;;;;;;;;;1.00;99.90;;;;;;4996782;28;19909;-75
2022/12/14 12:25:51;;;;;;;;;;;1.00;99.90;;;;;;5014975;28;19912;-75
2022/12/14 12:28:28;;;;;;;;;;;1.00;99.90;;;;;;5014393;28;20280;-75
2022/12/14 12:31:03;;;;;;;;;;;1.10;99.90;;;;;;5016966;28;20028;-75
2022/12/14 12:33:28;;;;;;;;;;;1.10;99.90;;;;;;5017641;28;20360;-75
2022/12/14 12:35:55;;;;;;;;;;;1.20;99.90;;;;;;5018884;28;19912;-75
2022/12/14 12:38:36;;;;;;;;;;;1.20;99.90;;;;;;5018097;28;20280;-75
2022/12/14 12:41:10;;;;;;;;;;;1.20;99.90;;;;;;5017850;28;19905;-75
2022/12/14 12:43:42;;;;;;;;;;;1.30;99.90;;;;;;5000357;28;20003;-75
2022/12/14 12:46:13;;;;;;;;;;;1.40;99.90;;;;;;5000227;28;19917;-75
2022/12/14 12:48:44;;;;;;;;;;;1.50;99.90;;;;;;5000201;28;19928;-75
2022/12/14 12:51:11;;;;;;;;;;;1.50;99.90;;;;;;5018284;28;20271;-75
2022/12/14 12:53:42;;;;;;;;;;;1.60;99.90;;;;;;5017815;28;20261;-75
2022/12/14 12:56:13;;;;;;;;;;;1.70;99.90;;;;;;5017529;28;20372;-75
2022/12/14 12:58:39;;;;;;;;;;;1.70;99.90;;;;;;5017673;28;19999;-75
2022/12/14 13:01:25;;;;;;;;;;;1.70;99.90;;;;;;4999800;28;20317;-75
2022/12/14 13:03:52;;;;;;;;;;;1.70;99.90;;;;;;5017030;28;19912;-75
2022/12/14 13:06:28;;;;;;;;;;;1.70;99.90;;;;;;4999818;28;20360;-75
2022/12/14 13:09:05;;;;;;;;;;;1.80;99.90;;;;;;5017912;28;19916;-75
2022/12/14 13:11:34;;;;;;;;;;;1.80;99.90;;;;;;5000025;28;19913;-75
2022/12/14 13:14:23;;;;;;;;;;;1.80;99.90;;;;;;5017492;28;20430;-75
2022/12/14 13:16:49;;;;;;;;;;;1.90;99.90;;;;;;5004025;28;19906;-75
2022/12/14 13:19:20;;;;;;;;;;;2.00;99.90;;;;;;5017412;28;19921;-75
2022/12/14 13:21:47;;;;;;;;;;;2.10;99.90;;;;;;4999061;28;19906;-75
2022/12/14 13:24:17;;;;;;;;;;;2.10;99.90;;;;;;5016836;28;19905;-75
2022/12/14 13:27:03;;;;;;;;;;;2.20;99.90;;;;;;5016803;28;19905;-74
2022/12/14 13:29:28;;;;;;;;;;;2.20;99.90;;;;;;5016474;28;20373;-75
2022/12/14 13:31:57;;;;;;;;;;;2.20;99.90;;;;;;5016805;28;19996;-75
2022/12/14 13:34:30;;;;;;;;;;;2.20;99.90;;;;;;4999180;28;19913;-75
2022/12/14 13:37:03;;;;;;;;;;;2.10;99.90;;;;;;4999398;28;19906;-74
2022/12/14 13:39:35;;;;;;;;;;;1.90;99.90;;;;;;5017415;28;19909;-74
2022/12/14 13:42:14;;;;;;;;;;;1.70;99.90;;;;;;5015586;28;20368;-75
2022/12/14 13:44:55;;;;;;;;;;;1.60;99.90;;;;;;5016607;28;20399;-75
2022/12/14 13:47:24;;;;;;;;;;;1.50;99.90;;;;;;5017265;28;20352;-75
2022/12/14 13:49:51;;;;;;;;;;;1.40;99.90;;;;;;4999122;28;19912;-75
2022/12/14 13:52:36;;;;;;;;;;;1.20;99.90;;;;;;5016361;28;19960;-75
2022/12/14 13:55:05;;;;;;;;;;;1.20;99.90;;;;;;5016434;28;19905;-74
2022/12/14 13:57:30;;;;;;;;;;;1.20;99.90;;;;;;4998945;28;19956;-75
2022/12/14 13:59:59;;;;;;;;;;;1.20;99.90;;;;;;5016308;28;19913;-74
2022/12/14 14:02:30;;;;;;;;;;;1.50;99.90;;;;;;4998893;28;19905;-74
2022/12/14 14:05:15;;;;;;;;;;;1.80;99.90;;;;;;5015421;28;19929;-74
2022/12/14 14:07:43;;;;;;;;;;;2.30;99.90;;;;;;5015184;28;19995;-74
2022/12/14 14:10:26;;;;;;;;;;;2.60;99.90;;;;;;5016032;28;20368;-74
2022/12/14 14:12:52;;;;;;;;;;;3.20;99.90;;;;;;4998570;28;19959;-74
2022/12/14 14:15:26;;;;;;;;;;;3.30;99.90;;;;;;5015980;28;19917;-74
2022/12/14 14:17:53;;;;;;;;;;;3.40;99.90;;;;;;5016697;28;20345;-74
2022/12/14 14:20:39;;;;;;;;;;;3.60;99.90;;;;;;5016094;28;20430;-74
2022/12/14 14:23:17;;;;;;;;;;;3.60;99.90;;;;;;5015890;28;19906;-74
2022/12/14 14:25:48;;;;;;;;;;;3.50;99.90;;;;;;5016058;28;19928;-74
2022/12/14 14:28:14;;;;;;;;;;;3.60;99.90;;;;;;5016383;28;19906;-74
2022/12/14 14:30:41;;;;;;;;;;;3.50;99.90;;;;;;5015988;28;19905;-74
2022/12/14 14:33:25;;;;;;;;;;;3.40;99.90;;;;;;4998384;28;19996;-74
2022/12/14 14:35:51;;;;;;;;;;;3.10;99.90;;;;;;5015779;28;20395;-74
2022/12/14 14:38:23;;;;;;;;;;;2.90;99.90;;;;;;5015550;28;19910;-74
2022/12/14 14:40:53;;;;;;;;;;;2.60;99.90;;;;;;5015513;28;19977;-74
2022/12/14 14:43:31;;;;;;;;;;;2.40;99.90;;;;;;5015302;28;20435;-74